createdAt,value
2017-12-20T00:01:19.340Z,45.10
2017-12-20T00:03:47.821Z,42.23
2017-12-20T00:06:17.024Z,49.77
2017-12-20T00:08:45.343Z,44.63
2017-12-20T00:11:13.694Z,42.70
2017-12-20T00:13:42.037Z,46.37
2017-12-20T00:16:10.363Z,46.50
2017-12-20T00:18:38.700Z,48.07
2017-12-20T00:21:07.144Z,46.37
2017-12-20T00:23:35.500Z,43.13
2017-12-20T00:26:03.809Z,36.50
2017-12-20T00:28:32.142Z,47.97
2017-12-20T00:31:00.456Z,44.00
2017-12-20T00:33:28.803Z,58.23
2017-12-20T00:35:57.134Z,54.67
2017-12-20T00:38:25.439Z,51.70
2017-12-20T00:40:53.800Z,51.70
2017-12-20T00:43:22.111Z,46.17
2017-12-20T00:45:50.583Z,45.27
2017-12-20T00:48:18.900Z,52.37
2017-12-20T00:50:47.223Z,49.37
2017-12-20T00:53:15.559Z,56.03
2017-12-20T00:55:43.875Z,48.47
2017-12-20T00:58:12.234Z,48.60
2017-12-20T01:00:43.504Z,51.83
2017-12-20T01:03:26.958Z,46.33
2017-12-20T01:05:55.540Z,52.43
2017-12-20T01:08:23.877Z,65.37
2017-12-20T01:10:52.207Z,57.00
2017-12-20T01:13:20.532Z,68.43
2017-12-20T01:15:48.886Z,59.20
2017-12-20T01:18:17.214Z,51.97
2017-12-20T01:20:45.571Z,63.90
2017-12-20T01:23:13.959Z,59.40
2017-12-20T01:25:44.775Z,64.50
2017-12-20T01:28:14.486Z,65.50
2017-12-20T01:30:42.825Z,70.23
2017-12-20T01:33:11.186Z,62.07
2017-12-20T01:35:40.279Z,89.63
2017-12-20T01:38:08.595Z,64.00
2017-12-20T01:40:36.944Z,67.07
2017-12-20T01:43:05.266Z,64.13
2017-12-20T01:45:33.571Z,69.40
2017-12-20T01:48:01.911Z,60.97
2017-12-20T01:50:30.221Z,101.57
2017-12-20T01:52:58.572Z,62.73
2017-12-20T01:55:27.036Z,73.93
2017-12-20T01:57:55.471Z,64.43
2017-12-20T02:00:23.797Z,60.20
2017-12-20T02:02:52.125Z,63.57
2017-12-20T02:05:20.453Z,61.40
2017-12-20T02:07:48.764Z,59.10
2017-12-20T02:10:17.114Z,64.30
2017-12-20T02:12:45.432Z,63.57
2017-12-20T02:15:14.028Z,57.07
2017-12-20T02:17:42.363Z,58.57
2017-12-20T02:20:10.674Z,56.90
2017-12-20T02:22:39.009Z,61.90
2017-12-20T02:25:07.366Z,55.80
2017-12-20T02:27:35.705Z,57.50
2017-12-20T02:30:03.996Z,53.53
2017-12-20T02:32:32.336Z,65.77
2017-12-20T02:35:00.663Z,49.73
2017-12-20T02:37:28.980Z,58.40
2017-12-20T02:39:57.340Z,57.33
2017-12-20T02:42:25.673Z,50.77
2017-12-20T02:44:53.986Z,57.63
2017-12-20T02:47:22.319Z,55.10
2017-12-20T02:49:50.650Z,57.57
2017-12-20T02:52:19.059Z,61.47
2017-12-20T02:54:47.500Z,81.80
2017-12-20T02:57:15.917Z,69.20
2017-12-20T02:59:44.276Z,57.63
2017-12-20T03:02:12.591Z,54.50
2017-12-20T03:04:41.736Z,58.10
2017-12-20T03:07:10.049Z,57.77
2017-12-20T03:09:38.382Z,54.90
2017-12-20T03:12:06.786Z,56.77
2017-12-20T03:14:35.141Z,53.90
2017-12-20T03:17:04.032Z,60.60
2017-12-20T03:19:32.460Z,59.17
2017-12-20T03:22:01.519Z,57.60
2017-12-20T03:24:29.837Z,55.60
2017-12-20T03:26:58.185Z,49.53
2017-12-20T03:29:26.976Z,51.70
2017-12-20T03:31:55.299Z,51.00
2017-12-20T03:34:23.624Z,52.30
2017-12-20T03:36:51.977Z,57.00
2017-12-20T03:39:20.332Z,67.07
2017-12-20T03:41:48.665Z,54.50
2017-12-20T03:44:16.987Z,48.73
2017-12-20T03:46:45.306Z,57.87
2017-12-20T03:49:13.640Z,56.47
2017-12-20T03:51:41.987Z,63.30
2017-12-20T03:54:10.320Z,62.53
2017-12-20T03:56:39.433Z,54.47
2017-12-20T03:59:07.756Z,47.77
2017-12-20T04:01:36.073Z,56.40
2017-12-20T04:04:04.403Z,61.03
2017-12-20T04:06:32.721Z,50.03
2017-12-20T04:09:01.099Z,53.50
2017-12-20T04:11:29.410Z,64.50
2017-12-20T04:13:57.762Z,58.37
2017-12-20T04:16:26.158Z,55.07
2017-12-20T04:18:54.612Z,45.50
2017-12-20T04:21:22.941Z,50.53
2017-12-20T04:23:51.267Z,47.00
2017-12-20T04:26:19.750Z,47.80
2017-12-20T04:28:48.147Z,50.20
2017-12-20T04:31:16.450Z,48.27
2017-12-20T04:33:52.696Z,45.77
2017-12-20T04:36:21.094Z,49.17
2017-12-20T04:38:49.439Z,46.73
2017-12-20T04:41:17.784Z,51.37
2017-12-20T04:43:46.109Z,55.03
2017-12-20T04:46:14.418Z,52.10
2017-12-20T04:48:42.876Z,56.60
2017-12-20T04:51:11.210Z,44.60
2017-12-20T04:53:39.533Z,52.20
2017-12-20T04:56:07.869Z,55.30
2017-12-20T04:58:37.183Z,61.27
2017-12-20T05:01:05.540Z,53.83
2017-12-20T05:03:33.901Z,62.03
2017-12-20T05:06:02.323Z,46.40
2017-12-20T05:08:31.297Z,47.20
2017-12-20T05:10:59.606Z,49.80
2017-12-20T05:13:27.955Z,52.27
2017-12-20T05:15:56.252Z,48.63
2017-12-20T05:18:24.734Z,49.10
2017-12-20T05:20:53.048Z,47.63
2017-12-20T05:23:21.377Z,51.00
2017-12-20T05:25:49.720Z,57.97
2017-12-20T05:28:18.056Z,50.30
2017-12-20T05:30:46.924Z,55.70
2017-12-20T05:33:15.338Z,50.73
2017-12-20T05:35:47.736Z,48.03
2017-12-20T05:38:16.078Z,50.00
2017-12-20T05:40:45.140Z,61.30
2017-12-20T05:43:13.481Z,51.03
2017-12-20T05:45:41.815Z,63.27
2017-12-20T05:48:10.176Z,49.73
2017-12-20T05:50:38.491Z,54.77
2017-12-20T05:53:07.766Z,47.97
2017-12-20T05:55:36.124Z,52.13
2017-12-20T05:58:04.432Z,54.60
2017-12-20T06:00:32.804Z,47.10
2017-12-20T06:03:01.189Z,45.17
2017-12-20T06:05:29.498Z,51.13
2017-12-20T06:07:57.828Z,44.10
2017-12-20T06:10:26.152Z,50.07
2017-12-20T06:12:54.552Z,49.80
2017-12-20T06:15:22.848Z,48.90
2017-12-20T06:17:51.210Z,42.43
2017-12-20T06:20:19.525Z,50.60
2017-12-20T06:22:47.858Z,46.53
2017-12-20T06:25:16.220Z,40.47
2017-12-20T06:27:44.575Z,45.83
2017-12-20T06:30:12.894Z,51.63
2017-12-20T06:32:41.208Z,46.63
2017-12-20T06:35:09.661Z,45.70
2017-12-20T06:37:38.134Z,44.17
2017-12-20T06:40:06.511Z,50.93
2017-12-20T06:42:36.123Z,37.00
2017-12-20T06:45:04.464Z,43.13
2017-12-20T06:47:32.800Z,40.87
2017-12-20T06:50:01.192Z,37.43
2017-12-20T06:52:29.570Z,42.30
2017-12-20T06:54:57.882Z,44.17
2017-12-20T06:57:26.229Z,42.40
2017-12-20T06:59:54.816Z,51.77
2017-12-20T07:02:23.182Z,39.83
2017-12-20T07:04:51.544Z,39.13
2017-12-20T07:07:20.785Z,37.43
2017-12-20T07:09:52.758Z,38.10
2017-12-20T07:12:21.199Z,39.43
2017-12-20T07:14:49.547Z,39.23
2017-12-20T07:17:17.933Z,41.17
2017-12-20T07:19:46.275Z,35.77
2017-12-20T07:22:14.637Z,40.97
2017-12-20T07:24:42.964Z,38.17
2017-12-20T07:27:11.341Z,31.80
2017-12-20T07:29:39.772Z,36.80
2017-12-20T07:32:08.098Z,40.03
2017-12-20T07:34:36.519Z,31.40
2017-12-20T07:37:04.829Z,39.40
2017-12-20T07:39:33.241Z,35.77
2017-12-20T07:42:01.902Z,37.97
2017-12-20T07:44:30.325Z,34.13
2017-12-20T07:46:58.689Z,34.03
2017-12-20T07:49:27.114Z,30.33
2017-12-20T07:51:55.457Z,38.00
2017-12-20T07:54:23.804Z,38.47
2017-12-20T07:56:52.169Z,36.97
2017-12-20T07:59:20.606Z,29.60
2017-12-20T08:01:48.938Z,34.53
2017-12-20T08:04:17.462Z,33.43
2017-12-20T08:06:45.982Z,27.93
2017-12-20T08:09:14.380Z,33.10
2017-12-20T08:11:42.815Z,31.43
2017-12-20T08:14:11.195Z,29.70
2017-12-20T08:16:39.757Z,37.13
2017-12-20T08:19:08.098Z,37.17
2017-12-20T08:21:36.522Z,40.90
2017-12-20T08:24:04.880Z,32.10
2017-12-20T08:26:33.470Z,30.93
2017-12-20T08:29:02.033Z,31.33
2017-12-20T08:31:30.429Z,28.87
2017-12-20T08:33:58.789Z,29.67
2017-12-20T08:36:27.179Z,29.87
2017-12-20T08:38:55.706Z,29.80
2017-12-20T08:41:26.373Z,29.93
2017-12-20T08:43:54.979Z,34.67
2017-12-20T08:46:23.469Z,27.97
2017-12-20T08:48:51.844Z,35.30
2017-12-20T08:51:20.274Z,26.67
2017-12-20T08:53:48.713Z,33.40
2017-12-20T08:56:17.069Z,28.30
2017-12-20T08:58:45.525Z,27.33
2017-12-20T09:01:14.036Z,36.57
2017-12-20T09:03:42.373Z,26.77
2017-12-20T09:06:10.800Z,33.50
2017-12-20T09:08:39.176Z,25.40
2017-12-20T09:11:07.518Z,27.47
2017-12-20T09:13:35.901Z,26.70
2017-12-20T09:16:04.292Z,28.30
2017-12-20T09:18:32.680Z,28.80
2017-12-20T09:21:01.087Z,23.03
2017-12-20T09:23:29.475Z,28.53
2017-12-20T09:25:57.891Z,30.40
2017-12-20T09:28:26.259Z,28.03
2017-12-20T09:30:54.759Z,42.67
2017-12-20T09:33:23.120Z,25.17
2017-12-20T09:35:51.479Z,31.13
2017-12-20T09:38:19.877Z,29.17
2017-12-20T09:40:48.374Z,30.90
2017-12-20T09:43:16.720Z,23.57
2017-12-20T09:45:45.144Z,21.90
2017-12-20T09:48:13.498Z,25.67
2017-12-20T09:50:41.954Z,25.90
2017-12-20T09:53:11.158Z,25.77
2017-12-20T09:55:39.585Z,18.80
2017-12-20T09:58:07.910Z,18.10
2017-12-20T10:00:36.288Z,24.70
2017-12-20T10:03:04.696Z,24.90
2017-12-20T10:05:33.135Z,15.67
2017-12-20T10:08:01.559Z,19.60
2017-12-20T10:10:30.009Z,20.27
2017-12-20T10:12:58.420Z,24.53
2017-12-20T10:15:27.775Z,40.73
2017-12-20T10:17:56.265Z,13.30
2017-12-20T10:20:24.636Z,15.00
2017-12-20T10:22:53.033Z,18.70
2017-12-20T10:25:21.448Z,50.50
2017-12-20T10:27:49.931Z,19.90
2017-12-20T10:30:19.966Z,19.53
2017-12-20T10:32:48.469Z,15.80
2017-12-20T10:35:36.986Z,16.57
2017-12-20T10:38:05.369Z,17.67
2017-12-20T10:40:34.529Z,20.30
2017-12-20T10:43:03.241Z,18.80
2017-12-20T10:45:31.651Z,18.47
2017-12-20T10:48:00.160Z,18.10
2017-12-20T10:50:28.591Z,16.67
2017-12-20T10:52:58.750Z,17.20
2017-12-20T10:55:27.105Z,16.90
2017-12-20T10:57:55.510Z,16.10
2017-12-20T11:00:23.909Z,13.87
2017-12-20T11:02:52.379Z,16.10
2017-12-20T11:05:20.946Z,17.27
2017-12-20T11:07:49.649Z,15.53
2017-12-20T11:10:18.022Z,16.83
2017-12-20T11:12:46.468Z,16.33
2017-12-20T11:15:15.133Z,14.17
2017-12-20T11:17:43.488Z,31.10
2017-12-20T11:20:12.390Z,20.13
2017-12-20T11:22:40.832Z,19.10
2017-12-20T11:25:09.316Z,32.10
2017-12-20T11:27:37.654Z,21.07
2017-12-20T11:30:06.084Z,19.20
2017-12-20T11:32:34.453Z,22.70
2017-12-20T11:35:02.980Z,23.60
2017-12-20T11:37:31.339Z,23.30
2017-12-20T11:39:59.678Z,17.07
2017-12-20T11:42:28.007Z,21.00
2017-12-20T11:44:56.377Z,20.57
2017-12-20T11:47:24.706Z,17.53
2017-12-20T11:49:53.158Z,13.23
2017-12-20T11:52:21.540Z,12.47
2017-12-20T11:54:51.009Z,12.53
2017-12-20T11:57:19.643Z,12.20
2017-12-20T11:59:48.111Z,17.57
2017-12-20T12:02:16.561Z,15.47
2017-12-20T12:04:45.009Z,15.47
2017-12-20T12:07:13.948Z,13.17
2017-12-20T12:09:43.759Z,14.27
2017-12-20T12:12:12.234Z,12.33
2017-12-20T12:14:40.702Z,14.73
2017-12-20T12:17:09.436Z,15.10
2017-12-20T12:19:38.454Z,17.20
2017-12-20T12:22:06.860Z,15.67
2017-12-20T12:24:35.230Z,19.67
2017-12-20T12:29:36.279Z,14.90
2017-12-20T12:32:04.752Z,16.37
2017-12-20T12:34:33.118Z,14.43
2017-12-20T12:37:01.488Z,18.70
2017-12-20T12:39:29.912Z,16.27
2017-12-20T12:41:58.541Z,15.57
2017-12-20T12:44:29.321Z,14.23
2017-12-20T12:46:58.065Z,15.17
2017-12-20T12:49:26.666Z,14.20
2017-12-20T12:51:55.386Z,19.57
2017-12-20T12:54:23.921Z,15.33
2017-12-20T12:56:52.799Z,17.20
2017-12-20T12:59:21.431Z,12.87
2017-12-20T13:01:50.779Z,24.20
2017-12-20T13:04:19.328Z,15.87
2017-12-20T13:06:48.073Z,16.97
2017-12-20T13:09:16.538Z,21.30
2017-12-20T13:11:44.963Z,14.03
2017-12-20T13:14:14.652Z,14.60
2017-12-20T13:16:43.052Z,18.40
2017-12-20T13:19:11.667Z,15.50
2017-12-20T13:21:40.228Z,16.90
2017-12-20T13:24:08.684Z,14.37
2017-12-20T13:26:37.213Z,17.13
2017-12-20T13:29:05.675Z,14.33
2017-12-20T13:31:34.149Z,13.07
2017-12-20T13:34:03.892Z,12.67
2017-12-20T13:36:32.382Z,22.97
2017-12-20T13:39:00.884Z,21.10
2017-12-20T13:41:29.470Z,12.23
2017-12-20T13:44:03.109Z,14.00
2017-12-20T13:46:32.889Z,13.40
2017-12-20T13:49:01.731Z,12.33
2017-12-20T13:51:30.270Z,13.17
2017-12-20T13:53:58.743Z,13.30
2017-12-20T13:56:27.275Z,14.40
2017-12-20T13:58:56.944Z,17.77
2017-12-20T14:01:25.496Z,12.90
2017-12-20T14:03:53.999Z,11.93
2017-12-20T14:06:22.399Z,12.10
2017-12-20T14:08:50.730Z,13.70
2017-12-20T14:11:19.049Z,9.97
2017-12-20T14:13:47.393Z,11.53
2017-12-20T14:16:15.722Z,9.20
2017-12-20T14:18:44.984Z,14.93
2017-12-20T14:21:13.333Z,10.50
2017-12-20T14:23:41.958Z,11.70
2017-12-20T14:26:10.524Z,13.20
2017-12-20T14:28:39.144Z,14.70
2017-12-20T14:31:07.534Z,9.57
2017-12-20T14:33:35.865Z,11.57
2017-12-20T14:36:04.495Z,11.40
2017-12-20T14:38:32.919Z,13.23
2017-12-20T14:41:01.314Z,12.43
2017-12-20T14:43:29.721Z,13.73
2017-12-20T14:45:59.135Z,13.13
2017-12-20T14:48:27.517Z,12.20
2017-12-20T14:50:55.935Z,10.17
2017-12-20T14:53:24.439Z,8.53
2017-12-20T14:55:52.765Z,14.73
2017-12-20T14:58:21.119Z,12.57
2017-12-20T15:00:50.738Z,10.70
2017-12-20T15:03:19.461Z,12.90
2017-12-20T15:05:47.841Z,13.00
2017-12-20T15:08:17.557Z,26.67
2017-12-20T15:10:46.051Z,12.63
2017-12-20T15:13:14.516Z,14.20
2017-12-20T15:15:42.975Z,16.50
2017-12-20T15:18:11.370Z,14.17
2017-12-20T15:20:39.730Z,11.90
2017-12-20T15:23:09.780Z,10.83
2017-12-20T15:25:38.209Z,11.27
2017-12-20T15:28:06.619Z,12.70
2017-12-20T15:30:35.273Z,13.57
2017-12-20T15:33:03.617Z,21.63
2017-12-20T15:35:32.452Z,12.40
2017-12-20T15:38:00.842Z,13.70
2017-12-20T15:40:29.219Z,12.30
2017-12-20T15:42:58.734Z,15.53
2017-12-20T15:45:27.500Z,12.83
2017-12-20T15:47:57.926Z,13.53
2017-12-20T15:50:27.767Z,13.20
2017-12-20T15:52:56.676Z,10.40
2017-12-20T15:55:33.116Z,11.20
2017-12-20T15:58:03.623Z,11.27
2017-12-20T16:00:34.321Z,13.13
2017-12-20T16:03:03.244Z,11.33
2017-12-20T16:05:31.792Z,13.70
2017-12-20T16:08:01.511Z,15.80
2017-12-20T16:10:31.008Z,13.20
2017-12-20T16:12:59.665Z,12.60
2017-12-20T16:18:00.680Z,10.23
2017-12-20T16:23:07.953Z,15.00
2017-12-20T16:25:46.118Z,12.47
2017-12-20T16:30:48.592Z,9.00
2017-12-20T16:33:17.287Z,16.30
2017-12-20T16:35:49.157Z,10.90
2017-12-20T16:38:20.389Z,12.70
2017-12-20T16:40:49.407Z,23.40
2017-12-20T16:43:20.385Z,16.50
2017-12-20T16:45:49.354Z,8.93
2017-12-20T16:48:18.034Z,9.07
2017-12-20T16:50:50.472Z,12.27
2017-12-20T16:53:30.999Z,13.90
2017-12-20T16:56:00.133Z,10.50
2017-12-20T17:01:05.162Z,14.33
2017-12-20T17:03:34.569Z,13.13
2017-12-20T17:06:07.299Z,16.53
2017-12-20T17:08:35.826Z,16.23
2017-12-20T17:11:06.629Z,12.00
2017-12-20T17:13:35.460Z,17.50
2017-12-20T17:16:04.493Z,13.17
2017-12-20T17:18:37.090Z,16.30
2017-12-20T17:21:05.793Z,17.13
2017-12-20T17:23:34.512Z,16.10
2017-12-20T17:26:04.666Z,14.60
2017-12-20T17:28:35.749Z,15.07
2017-12-20T17:31:04.788Z,16.00
2017-12-20T17:33:35.145Z,19.20
2017-12-20T17:36:04.746Z,14.93
2017-12-20T17:38:33.366Z,25.60
2017-12-20T17:41:01.788Z,20.50
2017-12-20T17:43:33.790Z,14.63
2017-12-20T17:46:02.973Z,20.70
2017-12-20T17:48:31.895Z,17.03
2017-12-20T17:51:00.491Z,20.90
2017-12-20T17:53:29.250Z,68.57
2017-12-20T17:55:57.743Z,61.47
2017-12-20T17:58:26.297Z,23.87
2017-12-20T18:00:55.516Z,28.20
2017-12-20T18:03:28.712Z,16.83
2017-12-20T18:05:57.155Z,15.30
2017-12-20T18:08:25.854Z,14.83
2017-12-20T18:10:54.229Z,15.00
2017-12-20T18:13:23.323Z,22.13
2017-12-20T18:15:51.774Z,16.90
2017-12-20T18:18:20.313Z,17.13
2017-12-20T18:20:48.683Z,23.60
2017-12-20T18:23:17.126Z,27.83
2017-12-20T18:25:45.448Z,19.73
2017-12-20T18:28:14.362Z,21.50
2017-12-20T18:30:42.687Z,15.83
2017-12-20T18:33:11.003Z,31.97
2017-12-20T18:35:39.704Z,24.10
2017-12-20T18:38:08.111Z,23.10
2017-12-20T18:43:10.086Z,30.43
2017-12-20T18:45:38.711Z,23.80
2017-12-20T18:48:07.024Z,19.73
2017-12-20T18:50:35.480Z,25.83
2017-12-20T18:53:03.968Z,21.27
2017-12-20T18:55:33.132Z,15.10
2017-12-20T18:58:01.557Z,20.83
2017-12-20T19:00:29.873Z,21.23
2017-12-20T19:02:58.182Z,21.40
2017-12-20T19:05:26.517Z,25.03
2017-12-20T19:07:54.840Z,31.07
2017-12-20T19:10:23.362Z,21.23
2017-12-20T19:12:52.991Z,22.30
2017-12-20T19:15:21.411Z,22.30
2017-12-20T19:17:49.758Z,25.63
2017-12-20T19:20:18.093Z,22.60
2017-12-20T19:22:46.563Z,24.50
2017-12-20T19:25:14.886Z,25.80
2017-12-20T19:27:43.332Z,28.03
2017-12-20T19:30:11.648Z,24.87
2017-12-20T19:32:39.965Z,22.20
2017-12-20T19:35:08.561Z,24.83
2017-12-20T19:37:36.961Z,26.90
2017-12-20T19:40:05.491Z,25.40
2017-12-20T19:42:33.886Z,30.03
2017-12-20T19:45:02.212Z,35.80
2017-12-20T19:47:30.685Z,30.27
2017-12-20T19:49:59.025Z,30.50
2017-12-20T19:52:27.688Z,35.87
2017-12-20T19:54:56.993Z,32.43
2017-12-20T19:57:26.287Z,21.83
2017-12-20T19:59:54.827Z,18.37
2017-12-20T20:02:23.398Z,21.63
2017-12-20T20:04:52.597Z,20.20
2017-12-20T20:07:21.033Z,17.67
2017-12-20T20:09:49.397Z,18.67
2017-12-20T20:12:17.771Z,15.87
2017-12-20T20:14:46.130Z,14.87
2017-12-20T20:17:14.599Z,12.43
2017-12-20T20:19:44.186Z,16.40
2017-12-20T20:22:12.499Z,16.40
2017-12-20T20:24:42.873Z,22.23
2017-12-20T20:27:12.854Z,29.13
2017-12-20T20:32:16.529Z,24.40
2017-12-20T20:34:45.138Z,22.47
2017-12-20T20:37:14.541Z,30.83
2017-12-20T20:39:43.463Z,33.00
2017-12-20T20:42:11.902Z,35.13
2017-12-20T20:44:40.427Z,33.93
2017-12-20T20:47:09.259Z,33.70
2017-12-20T20:49:44.173Z,37.27
2017-12-20T20:52:12.641Z,38.67
2017-12-20T20:54:41.194Z,39.43
2017-12-20T20:57:12.164Z,33.00
2017-12-20T20:59:40.602Z,35.60
2017-12-20T21:02:09.214Z,36.60
2017-12-20T21:04:38.974Z,35.23
2017-12-20T21:07:08.087Z,35.67
2017-12-20T21:09:37.027Z,36.80
2017-12-20T21:12:06.586Z,38.07
2017-12-20T21:14:35.622Z,35.87
2017-12-20T21:17:04.296Z,37.00
2017-12-20T21:19:34.329Z,41.37
2017-12-20T21:22:03.349Z,38.10
2017-12-20T21:24:32.005Z,36.87
2017-12-20T21:27:02.778Z,38.87
2017-12-20T21:29:37.392Z,35.17
2017-12-20T21:32:06.515Z,37.73
2017-12-20T21:34:35.498Z,45.37
2017-12-20T21:37:04.957Z,39.10
2017-12-20T21:39:34.834Z,39.70
2017-12-20T21:42:03.288Z,41.60
2017-12-20T21:44:31.814Z,41.07
2017-12-20T21:50:31.277Z,40.47
2017-12-20T21:52:59.881Z,40.30
2017-12-20T21:55:28.486Z,38.93
2017-12-20T21:57:56.849Z,33.57
2017-12-20T22:00:25.322Z,27.13
2017-12-20T22:02:53.713Z,34.10
2017-12-20T22:05:22.103Z,36.80
2017-12-20T22:07:50.623Z,34.67
2017-12-20T22:10:19.803Z,27.60
2017-12-20T22:12:48.629Z,30.57
2017-12-20T22:15:16.991Z,35.63
2017-12-20T22:17:45.419Z,33.57
2017-12-20T22:20:13.826Z,34.07
2017-12-20T22:22:42.176Z,35.70
2017-12-20T22:25:10.522Z,37.87
2017-12-20T22:27:39.629Z,36.67
2017-12-20T22:30:08.068Z,31.03
2017-12-20T22:32:38.887Z,39.93
2017-12-20T22:35:08.461Z,40.20
2017-12-20T22:37:36.939Z,35.73
2017-12-20T22:40:05.274Z,35.13
2017-12-20T22:42:33.723Z,33.60
2017-12-20T22:47:53.299Z,34.70
2017-12-20T22:50:21.664Z,34.43
2017-12-20T22:52:50.135Z,34.63
2017-12-20T22:55:19.423Z,33.30
2017-12-20T22:57:47.898Z,38.30
2017-12-20T23:03:11.663Z,37.97
2017-12-20T23:05:40.203Z,41.17
2017-12-20T23:08:09.858Z,38.40
2017-12-20T23:10:39.185Z,37.17
2017-12-20T23:15:57.326Z,36.53
2017-12-20T23:18:29.602Z,36.43
2017-12-20T23:21:00.111Z,34.63
2017-12-20T23:23:28.444Z,39.40
2017-12-20T23:25:57.297Z,34.27
2017-12-20T23:28:25.800Z,39.10
2017-12-20T23:30:54.277Z,39.13
2017-12-20T23:33:22.962Z,43.37
2017-12-20T23:35:51.768Z,42.83
2017-12-20T23:38:22.081Z,33.57
2017-12-20T23:40:50.586Z,42.00
2017-12-20T23:43:19.040Z,36.77
2017-12-20T23:45:47.521Z,34.40
2017-12-20T23:48:16.063Z,36.90
2017-12-20T23:50:44.834Z,45.83
2017-12-20T23:53:13.313Z,40.07
2017-12-20T23:55:41.699Z,41.17
2017-12-20T23:58:10.204Z,46.70
